Gallina — 9VGC4 — position and weather

sailwx.info

Track history (hours):
 
Tides and Currents Weather Stations Pressure Air Temp Water Temp Dewpoint Dewpoint Depression Visibility Wind Speed Wind Dir Waves Ship Positions

Gallina

Last reported at 2017-Jun-17 11:57 UTC. Time now 2017-Jun-24 20:51 UTC.
Position N 35°04' W 010°44'.

Type: Ship (hazmat cat A). MMSI: 564646000.

Date/timePositionNaut miles runAvg speedWind from/ knotsBaromVisibWave heightAir tempDewpointWater temp
2017-Jun-17 11:57N 35°04' W 010°44'1416.5
2017-Jun-17 11:06N 35°08' W 010°28'1415.2
2017-Jun-17 10:11N 35°11' W 010°12'314.8
2017-Jun-17 09:58N 35°12' W 010°08'715.2
2017-Jun-17 09:30N 35°14' W 009°60'815.1
2017-Jun-17 09:00N 35°16' W 009°51'815.0
2017-Jun-17 08:30N 35°18' W 009°42'815.0
2017-Jun-17 08:00N 35°21' W 009°33'714.9
2017-Jun-17 07:31N 35°23' W 009°24'714.8
2017-Jun-17 07:00N 35°25' W 009°16'1114.9
2017-Jun-17 06:18N 35°28' W 009°03'414.9
2017-Jun-17 06:00N 35°29' W 008°58'815.1
2017-Jun-17 05:30N 35°30' W 008°49'714.6
2017-Jun-17 05:01N 35°32' W 008°40'815.0
2017-Jun-17 04:27N 35°34' W 008°30'815.0
2017-Jun-17 03:56N 35°36' W 008°21'815.3
2017-Jun-17 03:24N 35°38' W 008°11'1415.4
2017-Jun-17 02:28N 35°42' W 007°54'715.6
2017-Jun-17 02:00N 35°44' W 007°46'815.6
2017-Jun-17 01:30N 35°46' W 007°37'916.0
2017-Jun-17 00:55N 35°49' W 007°25'2015.8
2017-Jun-16 23:39N 35°52' W 007°01'4715.3
2017-Jun-16 20:35N 35°57' W 006°03'516.2
2017-Jun-16 20:15N 35°57' W 005°57'1612.3
2017-Jun-16 18:59N 35°58' W 005°37'612.5
2017-Jun-16 18:30N 35°60' W 005°30'511.0
2017-Jun-16 18:00N 36°01' W 005°24'5 9.4
2017-Jun-16 17:30N 36°03' W 005°19'6 2.6
2017-Jun-16 15:10N 36°07' W 005°13'0 0.8
2017-Jun-16 14:56N 36°07' W 005°13'0 0.6
2017-Jun-16 14:18N 36°07' W 005°12'18910.8
2017-Jun-15 20:50N 36°36' W 001°20'1612.2
2017-Jun-15 19:31N 36°39' W 001°00'012.8
2017-Jun-15 19:31N 36°39' W 001°00'612.5
2017-Jun-15 19:00N 36°40' W 000°52'612.4
2017-Jun-15 18:31N 36°41' W 000°45'612.3
2017-Jun-15 18:00N 36°43' W 000°37'612.3
2017-Jun-15 17:30N 36°42' W 000°30'612.0
2017-Jun-15 17:00N 36°43' W 000°22'612.2
2017-Jun-15 16:30N 36°46' W 000°16'612.3
2017-Jun-15 16:00N 36°50' W 000°11'612.4
2017-Jun-15 15:31N 36°52' W 000°04'612.3
2017-Jun-15 15:01N 36°54' E 000°04'1312.2
2017-Jun-15 13:58N 36°59' E 000°19'611.9
2017-Jun-15 13:30N 37°00' E 000°25'611.7
2017-Jun-15 13:00N 37°03' E 000°32'511.0
2017-Jun-15 12:30N 37°03' E 000°39'611.6
2017-Jun-15 12:01N 37°01' E 000°45'611.4
2017-Jun-15 11:31N 37°00' E 000°53'611.8
2017-Jun-15 11:00N 37°02' E 000°60'612.0
2017-Jun-15 10:29N 37°03' E 001°08'612.2
2017-Jun-15 10:01N 37°04' E 001°15'712.1
2017-Jun-15 09:23N 37°06' E 001°24'511.9
2017-Jun-15 09:01N 37°07' E 001°29'611.9
2017-Jun-15 08:30N 37°09' E 001°36'612.2
2017-Jun-15 08:00N 37°11' E 001°44'711.8
2017-Jun-15 07:25N 37°13' E 001°52'512.6
2017-Jun-15 07:01N 37°12' E 001°58'612.8
2017-Jun-15 06:30N 37°13' E 002°06'713.7
2017-Jun-15 05:58N 37°15' E 002°15'913.7
2017-Jun-15 05:18N 37°16' E 002°26'413.7
2017-Jun-15 05:00N 37°17' E 002°31'713.6
2017-Jun-15 04:30N 37°18' E 002°40'713.7
2017-Jun-15 04:00N 37°19' E 002°48'713.7
2017-Jun-15 03:30N 37°20' E 002°57'713.8
2017-Jun-15 03:00N 37°20' E 003°06'713.9
2017-Jun-15 02:30N 37°21' E 003°14'713.8
2017-Jun-15 02:00N 37°22' E 003°23'713.2
2017-Jun-15 01:30N 37°24' E 003°31'713.4
2017-Jun-15 01:00N 37°28' E 003°37'713.5
2017-Jun-15 00:30N 37°33' E 003°43'612.4
2017-Jun-15 00:00N 37°36' E 003°50'713.5
2017-Jun-14 23:30N 37°35' E 003°58'713.5
2017-Jun-14 23:00N 37°34' E 004°07'713.3
2017-Jun-14 22:30N 37°33' E 004°15'713.1
2017-Jun-14 22:00N 37°37' E 004°21'713.4
2017-Jun-14 21:30N 37°42' E 004°27'612.0
2017-Jun-14 21:00N 37°45' E 004°34'713.8
2017-Jun-14 20:30N 37°44' E 004°42'713.9
2017-Jun-14 20:00N 37°44' E 004°51'713.9
2017-Jun-14 19:30N 37°45' E 004°60'813.5
2017-Jun-14 18:53N 37°44' E 005°11'513.4
2017-Jun-14 18:30N 37°43' E 005°17'713.5
2017-Jun-14 17:59N 37°47' E 005°23'713.8
2017-Jun-14 17:30N 37°52' E 005°30'713.9
2017-Jun-14 16:59N 37°55' E 005°38'714.2
2017-Jun-14 16:29N 37°54' E 005°46'813.6
2017-Jun-14 15:56N 37°52' E 005°56'512.6
2017-Jun-14 15:30N 37°52' E 006°02'612.6
2017-Jun-14 15:00N 37°52' E 006°11'1412.4
2017-Jun-14 13:50N 37°54' E 006°29'912.3
2017-Jun-14 13:07N 37°54' E 006°40'212.3
2017-Jun-14 12:58N 37°54' E 006°42'813.7
2017-Jun-14 12:21N 37°55' E 006°53'614.6
2017-Jun-14 11:58N 37°55' E 006°60'714.6
2017-Jun-14 11:29N 37°55' E 007°09'2415.0
2017-Jun-14 09:52N 37°57' E 007°40'714.8
2017-Jun-14 09:22N 37°57' E 007°49'614.6
2017-Jun-14 09:00N 37°58' E 007°56'2214.5
2017-Jun-14 07:28N 37°59' E 008°24'714.2
2017-Jun-14 06:59N 38°00' E 008°32'714.3
2017-Jun-14 06:29N 38°01' E 008°42'814.8
2017-Jun-14 05:58N 38°01' E 008°51'814.6
2017-Jun-14 05:27N 38°01' E 009°01'714.7
2017-Jun-14 04:59N 37°60' E 009°10'914.3
2017-Jun-14 04:22N 37°59' E 009°20'514.3
2017-Jun-14 04:00N 37°58' E 009°27'714.4
2017-Jun-14 03:30N 37°57' E 009°36'714.6
2017-Jun-14 03:00N 37°56' E 009°45'714.6
2017-Jun-14 02:30N 37°55' E 009°55'1314.2
2017-Jun-14 01:34N 37°51' E 010°10'314.2
2017-Jun-14 01:20N 37°50' E 010°15'814.0
2017-Jun-14 00:46N 37°47' E 010°24'414.1
2017-Jun-14 00:30N 37°45' E 010°28'714.3
2017-Jun-13 23:59N 37°42' E 010°36'714.2
2017-Jun-13 23:30N 37°39' E 010°44'714.2
2017-Jun-13 23:00N 37°36' E 010°52'714.3
2017-Jun-13 22:30N 37°33' E 011°00'814.7
2017-Jun-13 21:56N 37°29' E 011°09'2114.9
2017-Jun-13 20:33N 37°18' E 011°32'315.0
2017-Jun-13 20:21N 37°16' E 011°35'614.7
2017-Jun-13 19:59N 37°14' E 011°41'714.7
2017-Jun-13 19:30N 37°10' E 011°49'714.5
2017-Jun-13 19:00N 37°06' E 011°56'714.5
2017-Jun-13 18:30N 37°04' E 012°05'815.1
2017-Jun-13 18:00N 37°01' E 012°14'714.5
2017-Jun-13 17:30N 36°59' E 012°22'714.5
2017-Jun-13 17:00N 36°57' E 012°31'714.5
2017-Jun-13 16:30N 36°55' E 012°40'714.6
2017-Jun-13 16:00N 36°51' E 012°48'814.7
2017-Jun-13 15:30N 36°48' E 012°56'714.8
2017-Jun-13 15:00N 36°46' E 013°05'1514.7
2017-Jun-13 14:00N 36°43' E 013°23'714.7
2017-Jun-13 13:30N 36°40' E 013°31'714.8
2017-Jun-13 13:00N 36°36' E 013°39'714.3
2017-Jun-13 12:30N 36°34' E 013°48'714.1
2017-Jun-13 12:00N 36°35' E 013°56'713.7
2017-Jun-13 11:30N 36°33' E 014°04'714.2
2017-Jun-13 11:00N 36°28' E 014°11'714.5
2017-Jun-13 10:30N 36°25' E 014°19'714.6
2017-Jun-13 10:00N 36°22' E 014°27'714.5
2017-Jun-13 09:30N 36°19' E 014°36'714.3
2017-Jun-13 09:00N 36°17' E 014°44'914.1
2017-Jun-13 08:23N 36°15' E 014°55'2913.8
2017-Jun-13 06:17N 36°08' E 015°29'414.2
2017-Jun-13 05:58N 36°07' E 015°35'714.1
2017-Jun-13 05:30N 36°05' E 015°43'  
Track history (hours):
 
Tides and Currents Weather Stations Pressure Air Temp Water Temp Dewpoint Dewpoint Depression Visibility Wind Speed Wind Dir Waves Ship Positions

Gallina

Last reported at 2017-Jun-17 11:57 UTC. Time now 2017-Jun-24 20:51 UTC.
Position N 35°04' W 010°44'.

Type: Ship (hazmat cat A). MMSI: 564646000.

Date/timePositionNaut miles runAvg speedWind from/ knotsBaromVisibWave heightAir tempDewpointWater temp
2017-Jun-17 11:57N 35°04' W 010°44'1416.5
2017-Jun-17 11:06N 35°08' W 010°28'1415.2
2017-Jun-17 10:11N 35°11' W 010°12'314.8
2017-Jun-17 09:58N 35°12' W 010°08'715.2
2017-Jun-17 09:30N 35°14' W 009°60'815.1
2017-Jun-17 09:00N 35°16' W 009°51'815.0
2017-Jun-17 08:30N 35°18' W 009°42'815.0
2017-Jun-17 08:00N 35°21' W 009°33'714.9
2017-Jun-17 07:31N 35°23' W 009°24'714.8
2017-Jun-17 07:00N 35°25' W 009°16'1114.9
2017-Jun-17 06:18N 35°28' W 009°03'414.9
2017-Jun-17 06:00N 35°29' W 008°58'815.1
2017-Jun-17 05:30N 35°30' W 008°49'714.6
2017-Jun-17 05:01N 35°32' W 008°40'815.0
2017-Jun-17 04:27N 35°34' W 008°30'815.0
2017-Jun-17 03:56N 35°36' W 008°21'815.3
2017-Jun-17 03:24N 35°38' W 008°11'1415.4
2017-Jun-17 02:28N 35°42' W 007°54'715.6
2017-Jun-17 02:00N 35°44' W 007°46'815.6
2017-Jun-17 01:30N 35°46' W 007°37'916.0
2017-Jun-17 00:55N 35°49' W 007°25'2015.8
2017-Jun-16 23:39N 35°52' W 007°01'4715.3
2017-Jun-16 20:35N 35°57' W 006°03'516.2
2017-Jun-16 20:15N 35°57' W 005°57'1612.3
2017-Jun-16 18:59N 35°58' W 005°37'612.5
2017-Jun-16 18:30N 35°60' W 005°30'511.0
2017-Jun-16 18:00N 36°01' W 005°24'5 9.4
2017-Jun-16 17:30N 36°03' W 005°19'6 2.6
2017-Jun-16 15:10N 36°07' W 005°13'0 0.8
2017-Jun-16 14:56N 36°07' W 005°13'0 0.6
2017-Jun-16 14:18N 36°07' W 005°12'18910.8
2017-Jun-15 20:50N 36°36' W 001°20'1612.2
2017-Jun-15 19:31N 36°39' W 001°00'012.8
2017-Jun-15 19:31N 36°39' W 001°00'612.5
2017-Jun-15 19:00N 36°40' W 000°52'612.4
2017-Jun-15 18:31N 36°41' W 000°45'612.3
2017-Jun-15 18:00N 36°43' W 000°37'612.3
2017-Jun-15 17:30N 36°42' W 000°30'612.0
2017-Jun-15 17:00N 36°43' W 000°22'612.2
2017-Jun-15 16:30N 36°46' W 000°16'612.3
2017-Jun-15 16:00N 36°50' W 000°11'612.4
2017-Jun-15 15:31N 36°52' W 000°04'612.3
2017-Jun-15 15:01N 36°54' E 000°04'1312.2
2017-Jun-15 13:58N 36°59' E 000°19'611.9
2017-Jun-15 13:30N 37°00' E 000°25'611.7
2017-Jun-15 13:00N 37°03' E 000°32'511.0
2017-Jun-15 12:30N 37°03' E 000°39'611.6
2017-Jun-15 12:01N 37°01' E 000°45'611.4
2017-Jun-15 11:31N 37°00' E 000°53'611.8
2017-Jun-15 11:00N 37°02' E 000°60'612.0
2017-Jun-15 10:29N 37°03' E 001°08'612.2
2017-Jun-15 10:01N 37°04' E 001°15'712.1
2017-Jun-15 09:23N 37°06' E 001°24'511.9
2017-Jun-15 09:01N 37°07' E 001°29'611.9
2017-Jun-15 08:30N 37°09' E 001°36'612.2
2017-Jun-15 08:00N 37°11' E 001°44'711.8
2017-Jun-15 07:25N 37°13' E 001°52'512.6
2017-Jun-15 07:01N 37°12' E 001°58'612.8
2017-Jun-15 06:30N 37°13' E 002°06'713.7
2017-Jun-15 05:58N 37°15' E 002°15'913.7
2017-Jun-15 05:18N 37°16' E 002°26'413.7
2017-Jun-15 05:00N 37°17' E 002°31'713.6
2017-Jun-15 04:30N 37°18' E 002°40'713.7
2017-Jun-15 04:00N 37°19' E 002°48'713.7
2017-Jun-15 03:30N 37°20' E 002°57'713.8
2017-Jun-15 03:00N 37°20' E 003°06'713.9
2017-Jun-15 02:30N 37°21' E 003°14'713.8
2017-Jun-15 02:00N 37°22' E 003°23'713.2
2017-Jun-15 01:30N 37°24' E 003°31'713.4
2017-Jun-15 01:00N 37°28' E 003°37'713.5
2017-Jun-15 00:30N 37°33' E 003°43'612.4
2017-Jun-15 00:00N 37°36' E 003°50'713.5
2017-Jun-14 23:30N 37°35' E 003°58'713.5
2017-Jun-14 23:00N 37°34' E 004°07'713.3
2017-Jun-14 22:30N 37°33' E 004°15'713.1
2017-Jun-14 22:00N 37°37' E 004°21'713.4
2017-Jun-14 21:30N 37°42' E 004°27'612.0
2017-Jun-14 21:00N 37°45' E 004°34'713.8
2017-Jun-14 20:30N 37°44' E 004°42'713.9
2017-Jun-14 20:00N 37°44' E 004°51'713.9
2017-Jun-14 19:30N 37°45' E 004°60'813.5
2017-Jun-14 18:53N 37°44' E 005°11'513.4
2017-Jun-14 18:30N 37°43' E 005°17'713.5
2017-Jun-14 17:59N 37°47' E 005°23'713.8
2017-Jun-14 17:30N 37°52' E 005°30'713.9
2017-Jun-14 16:59N 37°55' E 005°38'714.2
2017-Jun-14 16:29N 37°54' E 005°46'813.6
2017-Jun-14 15:56N 37°52' E 005°56'512.6
2017-Jun-14 15:30N 37°52' E 006°02'612.6
2017-Jun-14 15:00N 37°52' E 006°11'1412.4
2017-Jun-14 13:50N 37°54' E 006°29'912.3
2017-Jun-14 13:07N 37°54' E 006°40'212.3
2017-Jun-14 12:58N 37°54' E 006°42'813.7
2017-Jun-14 12:21N 37°55' E 006°53'614.6
2017-Jun-14 11:58N 37°55' E 006°60'714.6
2017-Jun-14 11:29N 37°55' E 007°09'2415.0
2017-Jun-14 09:52N 37°57' E 007°40'714.8
2017-Jun-14 09:22N 37°57' E 007°49'614.6
2017-Jun-14 09:00N 37°58' E 007°56'2214.5
2017-Jun-14 07:28N 37°59' E 008°24'714.2
2017-Jun-14 06:59N 38°00' E 008°32'714.3
2017-Jun-14 06:29N 38°01' E 008°42'814.8
2017-Jun-14 05:58N 38°01' E 008°51'814.6
2017-Jun-14 05:27N 38°01' E 009°01'714.7
2017-Jun-14 04:59N 37°60' E 009°10'914.3
2017-Jun-14 04:22N 37°59' E 009°20'514.3
2017-Jun-14 04:00N 37°58' E 009°27'714.4
2017-Jun-14 03:30N 37°57' E 009°36'714.6
2017-Jun-14 03:00N 37°56' E 009°45'714.6
2017-Jun-14 02:30N 37°55' E 009°55'1314.2
2017-Jun-14 01:34N 37°51' E 010°10'314.2
2017-Jun-14 01:20N 37°50' E 010°15'814.0
2017-Jun-14 00:46N 37°47' E 010°24'414.1
2017-Jun-14 00:30N 37°45' E 010°28'714.3
2017-Jun-13 23:59N 37°42' E 010°36'714.2
2017-Jun-13 23:30N 37°39' E 010°44'714.2
2017-Jun-13 23:00N 37°36' E 010°52'714.3
2017-Jun-13 22:30N 37°33' E 011°00'814.7
2017-Jun-13 21:56N 37°29' E 011°09'2114.9
2017-Jun-13 20:33N 37°18' E 011°32'315.0
2017-Jun-13 20:21N 37°16' E 011°35'614.7
2017-Jun-13 19:59N 37°14' E 011°41'714.7
2017-Jun-13 19:30N 37°10' E 011°49'714.5
2017-Jun-13 19:00N 37°06' E 011°56'714.5
2017-Jun-13 18:30N 37°04' E 012°05'815.1
2017-Jun-13 18:00N 37°01' E 012°14'714.5
2017-Jun-13 17:30N 36°59' E 012°22'714.5
2017-Jun-13 17:00N 36°57' E 012°31'714.5
2017-Jun-13 16:30N 36°55' E 012°40'714.6
2017-Jun-13 16:00N 36°51' E 012°48'814.7
2017-Jun-13 15:30N 36°48' E 012°56'714.8
2017-Jun-13 15:00N 36°46' E 013°05'1514.7
2017-Jun-13 14:00N 36°43' E 013°23'714.7
2017-Jun-13 13:30N 36°40' E 013°31'714.8
2017-Jun-13 13:00N 36°36' E 013°39'714.3
2017-Jun-13 12:30N 36°34' E 013°48'714.1
2017-Jun-13 12:00N 36°35' E 013°56'713.7
2017-Jun-13 11:30N 36°33' E 014°04'714.2
2017-Jun-13 11:00N 36°28' E 014°11'714.5
2017-Jun-13 10:30N 36°25' E 014°19'714.6
2017-Jun-13 10:00N 36°22' E 014°27'714.5
2017-Jun-13 09:30N 36°19' E 014°36'714.3
2017-Jun-13 09:00N 36°17' E 014°44'914.1
2017-Jun-13 08:23N 36°15' E 014°55'2913.8
2017-Jun-13 06:17N 36°08' E 015°29'414.2
2017-Jun-13 05:58N 36°07' E 015°35'714.1
2017-Jun-13 05:30N 36°05' E 015°43'  

Dump ship's entire track history